sensor_id;sensor_type;location;lat;lon;timestamp;P1;durP1;ratioP1;P2;durP2;ratioP2
13197;SDS011;6664;52.514;13.440;2022-11-20T00:00:41;9.17;;;6.27;;
13197;SDS011;6664;52.514;13.440;2022-11-20T00:03:26;11.53;;;7.27;;
13197;SDS011;6664;52.514;13.440;2022-11-20T00:06:13;6.77;;;5.70;;
13197;SDS011;6664;52.514;13.440;2022-11-20T00:09:00;9.00;;;5.77;;
13197;SDS011;6664;52.514;13.440;2022-11-20T00:11:47;9.47;;;7.27;;
13197;SDS011;6664;52.514;13.440;2022-11-20T00:14:32;6.30;;;5.50;;
13197;SDS011;6664;52.514;13.440;2022-11-20T00:17:18;9.53;;;6.13;;
13197;SDS011;6664;52.514;13.440;2022-11-20T00:20:03;10.93;;;6.43;;
13197;SDS011;6664;52.514;13.440;2022-11-20T00:22:50;9.40;;;6.87;;
13197;SDS011;6664;52.514;13.440;2022-11-20T00:25:36;14.20;;;7.30;;
13197;SDS011;6664;52.514;13.440;2022-11-20T00:28:23;12.80;;;7.20;;
13197;SDS011;6664;52.514;13.440;2022-11-20T00:31:11;11.00;;;6.83;;
13197;SDS011;6664;52.514;13.440;2022-11-20T00:33:58;9.00;;;6.53;;
13197;SDS011;6664;52.514;13.440;2022-11-20T00:36:46;11.77;;;6.03;;
13197;SDS011;6664;52.514;13.440;2022-11-20T00:39:34;9.47;;;6.50;;
13197;SDS011;6664;52.514;13.440;2022-11-20T00:42:19;9.80;;;6.17;;
13197;SDS011;6664;52.514;13.440;2022-11-20T00:45:05;9.50;;;6.37;;
13197;SDS011;6664;52.514;13.440;2022-11-20T00:47:51;8.00;;;6.20;;
13197;SDS011;6664;52.514;13.440;2022-11-20T00:50:37;6.43;;;5.10;;
13197;SDS011;6664;52.514;13.440;2022-11-20T00:53:22;13.30;;;7.03;;
13197;SDS011;6664;52.514;13.440;2022-11-20T00:56:11;9.80;;;5.80;;
13197;SDS011;6664;52.514;13.440;2022-11-20T00:58:59;10.23;;;6.07;;
13197;SDS011;6664;52.514;13.440;2022-11-20T01:01:46;14.80;;;6.17;;
13197;SDS011;6664;52.514;13.440;2022-11-20T01:04:31;9.07;;;5.97;;
13197;SDS011;6664;52.514;13.440;2022-11-20T01:07:20;10.93;;;5.20;;
13197;SDS011;6664;52.514;13.440;2022-11-20T01:10:08;8.50;;;5.70;;
13197;SDS011;6664;52.514;13.440;2022-11-20T01:12:53;9.40;;;5.47;;
13197;SDS011;6664;52.514;13.440;2022-11-20T01:16:10;10.87;;;5.57;;
13197;SDS011;6664;52.514;13.440;2022-11-20T01:18:58;7.37;;;5.80;;
13197;SDS011;6664;52.514;13.440;2022-11-20T01:21:47;9.17;;;6.10;;
13197;SDS011;6664;52.514;13.440;2022-11-20T01:24:34;11.73;;;6.27;;
13197;SDS011;6664;52.514;13.440;2022-11-20T01:27:20;9.30;;;6.23;;
13197;SDS011;6664;52.514;13.440;2022-11-20T01:30:06;7.83;;;5.17;;
13197;SDS011;6664;52.514;13.440;2022-11-20T01:32:52;10.33;;;6.30;;
13197;SDS011;6664;52.514;13.440;2022-11-20T01:35:40;8.53;;;5.20;;
13197;SDS011;6664;52.514;13.440;2022-11-20T01:38:29;8.90;;;6.13;;
13197;SDS011;6664;52.514;13.440;2022-11-20T01:41:18;7.57;;;5.67;;
13197;SDS011;6664;52.514;13.440;2022-11-20T01:44:41;12.83;;;7.20;;
13197;SDS011;6664;52.514;13.440;2022-11-20T01:50:29;8.60;;;6.00;;
13197;SDS011;6664;52.514;13.440;2022-11-20T01:53:18;11.03;;;6.00;;
13197;SDS011;6664;52.514;13.440;2022-11-20T01:56:12;10.00;;;5.93;;
13197;SDS011;6664;52.514;13.440;2022-11-20T01:59:02;9.40;;;5.90;;
13197;SDS011;6664;52.514;13.440;2022-11-20T02:01:54;8.70;;;5.43;;
13197;SDS011;6664;52.514;13.440;2022-11-20T02:04:41;9.20;;;6.30;;
13197;SDS011;6664;52.514;13.440;2022-11-20T02:07:29;5.73;;;5.03;;
13197;SDS011;6664;52.514;13.440;2022-11-20T02:10:16;10.03;;;5.73;;
13197;SDS011;6664;52.514;13.440;2022-11-20T02:13:03;9.77;;;5.70;;
13197;SDS011;6664;52.514;13.440;2022-11-20T02:16:09;9.17;;;6.50;;
13197;SDS011;6664;52.514;13.440;2022-11-20T02:19:01;8.13;;;5.93;;
13197;SDS011;6664;52.514;13.440;2022-11-20T02:24:56;7.27;;;5.63;;
13197;SDS011;6664;52.514;13.440;2022-11-20T02:27:47;10.60;;;6.00;;
13197;SDS011;6664;52.514;13.440;2022-11-20T02:30:34;6.93;;;6.27;;
13197;SDS011;6664;52.514;13.440;2022-11-20T02:33:19;11.00;;;6.03;;
13197;SDS011;6664;52.514;13.440;2022-11-20T02:36:27;9.80;;;6.03;;
13197;SDS011;6664;52.514;13.440;2022-11-20T02:39:15;10.57;;;6.27;;
13197;SDS011;6664;52.514;13.440;2022-11-20T02:42:03;9.70;;;6.20;;
13197;SDS011;6664;52.514;13.440;2022-11-20T02:44:49;11.07;;;6.63;;
13197;SDS011;6664;52.514;13.440;2022-11-20T02:47:38;6.47;;;5.30;;
13197;SDS011;6664;52.514;13.440;2022-11-20T02:50:25;8.80;;;5.50;;
13197;SDS011;6664;52.514;13.440;2022-11-20T02:53:11;6.23;;;5.40;;
13197;SDS011;6664;52.514;13.440;2022-11-20T02:55:58;8.80;;;6.07;;
13197;SDS011;6664;52.514;13.440;2022-11-20T02:58:44;7.63;;;5.80;;
13197;SDS011;6664;52.514;13.440;2022-11-20T03:01:30;9.90;;;5.77;;
13197;SDS011;6664;52.514;13.440;2022-11-20T03:04:15;11.30;;;6.40;;
13197;SDS011;6664;52.514;13.440;2022-11-20T03:07:01;8.67;;;6.03;;
13197;SDS011;6664;52.514;13.440;2022-11-20T03:09:47;16.57;;;7.23;;
13197;SDS011;6664;52.514;13.440;2022-11-20T03:12:32;6.27;;;5.17;;
13197;SDS011;6664;52.514;13.440;2022-11-20T03:15:17;9.03;;;6.47;;
13197;SDS011;6664;52.514;13.440;2022-11-20T03:18:03;8.20;;;5.80;;
13197;SDS011;6664;52.514;13.440;2022-11-20T03:20:49;7.60;;;6.37;;
13197;SDS011;6664;52.514;13.440;2022-11-20T03:23:41;16.90;;;6.17;;
13197;SDS011;6664;52.514;13.440;2022-11-20T03:26:29;10.70;;;6.10;;
13197;SDS011;6664;52.514;13.440;2022-11-20T03:29:15;9.07;;;6.20;;
13197;SDS011;6664;52.514;13.440;2022-11-20T03:32:00;9.27;;;5.70;;
13197;SDS011;6664;52.514;13.440;2022-11-20T03:34:45;14.60;;;6.30;;
13197;SDS011;6664;52.514;13.440;2022-11-20T03:37:31;8.63;;;6.00;;
13197;SDS011;6664;52.514;13.440;2022-11-20T03:40:20;9.47;;;5.37;;
13197;SDS011;6664;52.514;13.440;2022-11-20T03:43:05;12.03;;;6.70;;
13197;SDS011;6664;52.514;13.440;2022-11-20T03:45:53;9.23;;;5.90;;
13197;SDS011;6664;52.514;13.440;2022-11-20T03:48:38;8.83;;;6.50;;
13197;SDS011;6664;52.514;13.440;2022-11-20T03:51:28;8.37;;;6.27;;
13197;SDS011;6664;52.514;13.440;2022-11-20T03:54:15;12.33;;;6.60;;
13197;SDS011;6664;52.514;13.440;2022-11-20T03:57:00;9.37;;;6.60;;
13197;SDS011;6664;52.514;13.440;2022-11-20T03:59:46;10.70;;;7.00;;
13197;SDS011;6664;52.514;13.440;2022-11-20T04:02:34;10.53;;;6.70;;
13197;SDS011;6664;52.514;13.440;2022-11-20T04:05:19;7.57;;;6.27;;
13197;SDS011;6664;52.514;13.440;2022-11-20T04:08:05;10.30;;;6.83;;
13197;SDS011;6664;52.514;13.440;2022-11-20T04:10:50;8.93;;;6.17;;
13197;SDS011;6664;52.514;13.440;2022-11-20T04:13:36;7.20;;;5.67;;
13197;SDS011;6664;52.514;13.440;2022-11-20T04:16:25;13.03;;;6.00;;
13197;SDS011;6664;52.514;13.440;2022-11-20T04:19:14;10.17;;;7.50;;
13197;SDS011;6664;52.514;13.440;2022-11-20T04:22:00;10.90;;;6.80;;
13197;SDS011;6664;52.514;13.440;2022-11-20T04:24:48;11.17;;;6.70;;
13197;SDS011;6664;52.514;13.440;2022-11-20T04:27:34;10.30;;;6.73;;
13197;SDS011;6664;52.514;13.440;2022-11-20T04:30:19;6.50;;;5.77;;
13197;SDS011;6664;52.514;13.440;2022-11-20T04:33:05;16.13;;;5.67;;
13197;SDS011;6664;52.514;13.440;2022-11-20T04:35:50;7.50;;;5.83;;
13197;SDS011;6664;52.514;13.440;2022-11-20T04:38:38;7.97;;;5.60;;
13197;SDS011;6664;52.514;13.440;2022-11-20T04:41:28;7.60;;;5.70;;
13197;SDS011;6664;52.514;13.440;2022-11-20T04:44:18;11.50;;;6.37;;
13197;SDS011;6664;52.514;13.440;2022-11-20T04:47:04;8.30;;;5.30;;
13197;SDS011;6664;52.514;13.440;2022-11-20T04:49:49;8.70;;;5.90;;
13197;SDS011;6664;52.514;13.440;2022-11-20T04:52:35;7.53;;;5.47;;
13197;SDS011;6664;52.514;13.440;2022-11-20T04:55:20;10.97;;;6.70;;
13197;SDS011;6664;52.514;13.440;2022-11-20T04:58:05;8.13;;;5.53;;
13197;SDS011;6664;52.514;13.440;2022-11-20T05:00:51;9.63;;;6.40;;
13197;SDS011;6664;52.514;13.440;2022-11-20T05:03:46;9.10;;;5.73;;
13197;SDS011;6664;52.514;13.440;2022-11-20T05:06:31;9.23;;;6.37;;
13197;SDS011;6664;52.514;13.440;2022-11-20T05:09:17;6.47;;;5.87;;
13197;SDS011;6664;52.514;13.440;2022-11-20T05:12:09;8.30;;;6.10;;
13197;SDS011;6664;52.514;13.440;2022-11-20T05:14:55;7.87;;;6.00;;
13197;SDS011;6664;52.514;13.440;2022-11-20T05:17:40;10.57;;;6.00;;
13197;SDS011;6664;52.514;13.440;2022-11-20T05:20:31;9.87;;;6.90;;
13197;SDS011;6664;52.514;13.440;2022-11-20T05:23:16;8.77;;;5.53;;
13197;SDS011;6664;52.514;13.440;2022-11-20T05:26:02;9.47;;;6.13;;
13197;SDS011;6664;52.514;13.440;2022-11-20T05:28:49;9.63;;;6.00;;
13197;SDS011;6664;52.514;13.440;2022-11-20T05:31:35;9.47;;;6.37;;
13197;SDS011;6664;52.514;13.440;2022-11-20T05:34:23;11.33;;;7.13;;
13197;SDS011;6664;52.514;13.440;2022-11-20T05:37:08;7.47;;;5.90;;
13197;SDS011;6664;52.514;13.440;2022-11-20T05:39:54;13.30;;;7.70;;
13197;SDS011;6664;52.514;13.440;2022-11-20T05:42:41;11.10;;;6.50;;
13197;SDS011;6664;52.514;13.440;2022-11-20T05:45:29;8.33;;;6.37;;
13197;SDS011;6664;52.514;13.440;2022-11-20T05:48:15;11.03;;;7.30;;
13197;SDS011;6664;52.514;13.440;2022-11-20T05:51:01;11.50;;;6.57;;
13197;SDS011;6664;52.514;13.440;2022-11-20T05:53:47;14.60;;;6.57;;
13197;SDS011;6664;52.514;13.440;2022-11-20T05:56:33;7.50;;;5.60;;
13197;SDS011;6664;52.514;13.440;2022-11-20T05:59:20;9.67;;;6.90;;
13197;SDS011;6664;52.514;13.440;2022-11-20T06:02:06;10.13;;;6.30;;
13197;SDS011;6664;52.514;13.440;2022-11-20T06:04:52;11.97;;;6.60;;
13197;SDS011;6664;52.514;13.440;2022-11-20T06:07:37;9.43;;;6.27;;
13197;SDS011;6664;52.514;13.440;2022-11-20T06:10:23;11.00;;;7.20;;
13197;SDS011;6664;52.514;13.440;2022-11-20T06:13:08;8.97;;;5.60;;
13197;SDS011;6664;52.514;13.440;2022-11-20T06:15:54;10.13;;;6.97;;
13197;SDS011;6664;52.514;13.440;2022-11-20T06:18:42;7.27;;;6.57;;
13197;SDS011;6664;52.514;13.440;2022-11-20T06:21:27;9.40;;;6.73;;
13197;SDS011;6664;52.514;13.440;2022-11-20T06:24:13;10.60;;;7.00;;
13197;SDS011;6664;52.514;13.440;2022-11-20T06:26:58;9.80;;;6.63;;
13197;SDS011;6664;52.514;13.440;2022-11-20T06:29:44;9.20;;;6.40;;
13197;SDS011;6664;52.514;13.440;2022-11-20T06:32:30;8.50;;;6.60;;
13197;SDS011;6664;52.514;13.440;2022-11-20T06:35:15;10.63;;;6.03;;
13197;SDS011;6664;52.514;13.440;2022-11-20T06:38:01;8.60;;;6.53;;
13197;SDS011;6664;52.514;13.440;2022-11-20T06:40:46;7.30;;;5.60;;
13197;SDS011;6664;52.514;13.440;2022-11-20T06:43:32;12.10;;;7.60;;
13197;SDS011;6664;52.514;13.440;2022-11-20T06:46:18;11.93;;;6.33;;
13197;SDS011;6664;52.514;13.440;2022-11-20T06:49:04;13.27;;;6.70;;
13197;SDS011;6664;52.514;13.440;2022-11-20T06:51:50;8.80;;;6.63;;
13197;SDS011;6664;52.514;13.440;2022-11-20T06:54:36;6.27;;;5.67;;
13197;SDS011;6664;52.514;13.440;2022-11-20T06:57:23;9.67;;;6.20;;
13197;SDS011;6664;52.514;13.440;2022-11-20T07:00:12;8.27;;;5.90;;
13197;SDS011;6664;52.514;13.440;2022-11-20T07:03:02;9.27;;;6.23;;
13197;SDS011;6664;52.514;13.440;2022-11-20T07:05:48;11.23;;;6.80;;
13197;SDS011;6664;52.514;13.440;2022-11-20T07:08:34;8.00;;;5.80;;
13197;SDS011;6664;52.514;13.440;2022-11-20T07:11:20;9.07;;;6.50;;
13197;SDS011;6664;52.514;13.440;2022-11-20T07:14:13;9.27;;;6.43;;
13197;SDS011;6664;52.514;13.440;2022-11-20T07:16:58;11.30;;;6.50;;
13197;SDS011;6664;52.514;13.440;2022-11-20T07:19:44;16.03;;;7.30;;
13197;SDS011;6664;52.514;13.440;2022-11-20T07:22:30;8.37;;;6.50;;
13197;SDS011;6664;52.514;13.440;2022-11-20T07:25:18;8.50;;;6.33;;
13197;SDS011;6664;52.514;13.440;2022-11-20T07:28:04;9.57;;;6.10;;
13197;SDS011;6664;52.514;13.440;2022-11-20T07:30:53;8.30;;;5.97;;
13197;SDS011;6664;52.514;13.440;2022-11-20T07:33:38;12.13;;;7.27;;
13197;SDS011;6664;52.514;13.440;2022-11-20T07:36:28;10.50;;;7.27;;
13197;SDS011;6664;52.514;13.440;2022-11-20T07:39:16;14.23;;;7.00;;
13197;SDS011;6664;52.514;13.440;2022-11-20T07:42:05;8.90;;;5.93;;
13197;SDS011;6664;52.514;13.440;2022-11-20T07:44:51;9.23;;;6.80;;
13197;SDS011;6664;52.514;13.440;2022-11-20T07:47:37;10.73;;;6.60;;
13197;SDS011;6664;52.514;13.440;2022-11-20T07:50:23;9.47;;;6.57;;
13197;SDS011;6664;52.514;13.440;2022-11-20T07:53:09;7.13;;;5.60;;
13197;SDS011;6664;52.514;13.440;2022-11-20T07:55:54;11.27;;;6.27;;
13197;SDS011;6664;52.514;13.440;2022-11-20T07:58:40;9.23;;;5.87;;
13197;SDS011;6664;52.514;13.440;2022-11-20T08:01:25;11.77;;;7.17;;
13197;SDS011;6664;52.514;13.440;2022-11-20T08:04:11;8.37;;;6.13;;
13197;SDS011;6664;52.514;13.440;2022-11-20T08:07:00;8.63;;;6.27;;
13197;SDS011;6664;52.514;13.440;2022-11-20T08:09:48;11.00;;;7.37;;
13197;SDS011;6664;52.514;13.440;2022-11-20T08:12:43;7.90;;;6.30;;
13197;SDS011;6664;52.514;13.440;2022-11-20T08:15:51;17.27;;;7.00;;
13197;SDS011;6664;52.514;13.440;2022-11-20T08:18:36;10.00;;;6.33;;
13197;SDS011;6664;52.514;13.440;2022-11-20T08:21:22;9.37;;;5.87;;
13197;SDS011;6664;52.514;13.440;2022-11-20T08:24:08;10.70;;;6.53;;
13197;SDS011;6664;52.514;13.440;2022-11-20T08:26:57;11.50;;;6.70;;
13197;SDS011;6664;52.514;13.440;2022-11-20T08:29:44;10.53;;;7.17;;
13197;SDS011;6664;52.514;13.440;2022-11-20T08:32:30;10.40;;;6.67;;
13197;SDS011;6664;52.514;13.440;2022-11-20T08:35:20;9.83;;;6.30;;
13197;SDS011;6664;52.514;13.440;2022-11-20T08:38:06;10.60;;;7.10;;
13197;SDS011;6664;52.514;13.440;2022-11-20T08:40:51;9.13;;;6.83;;
13197;SDS011;6664;52.514;13.440;2022-11-20T08:44:00;12.67;;;6.63;;
13197;SDS011;6664;52.514;13.440;2022-11-20T08:46:50;11.67;;;7.37;;
13197;SDS011;6664;52.514;13.440;2022-11-20T08:49:38;10.00;;;7.37;;
13197;SDS011;6664;52.514;13.440;2022-11-20T08:52:24;9.73;;;7.00;;
13197;SDS011;6664;52.514;13.440;2022-11-20T08:55:09;12.13;;;6.60;;
13197;SDS011;6664;52.514;13.440;2022-11-20T08:57:56;7.77;;;5.77;;
13197;SDS011;6664;52.514;13.440;2022-11-20T09:00:44;10.27;;;7.10;;
13197;SDS011;6664;52.514;13.440;2022-11-20T09:03:32;9.43;;;6.00;;
13197;SDS011;6664;52.514;13.440;2022-11-20T09:06:19;11.10;;;7.30;;
13197;SDS011;6664;52.514;13.440;2022-11-20T09:09:05;12.60;;;6.50;;
13197;SDS011;6664;52.514;13.440;2022-11-20T09:11:53;9.07;;;6.77;;
13197;SDS011;6664;52.514;13.440;2022-11-20T09:14:38;13.17;;;7.07;;
13197;SDS011;6664;52.514;13.440;2022-11-20T09:17:24;8.63;;;6.47;;
13197;SDS011;6664;52.514;13.440;2022-11-20T09:20:09;9.83;;;6.20;;
13197;SDS011;6664;52.514;13.440;2022-11-20T09:22:55;9.43;;;7.30;;
13197;SDS011;6664;52.514;13.440;2022-11-20T09:25:41;10.30;;;6.97;;
13197;SDS011;6664;52.514;13.440;2022-11-20T09:28:27;11.43;;;6.73;;
13197;SDS011;6664;52.514;13.440;2022-11-20T09:31:18;8.90;;;7.30;;
13197;SDS011;6664;52.514;13.440;2022-11-20T09:34:07;10.13;;;7.30;;
13197;SDS011;6664;52.514;13.440;2022-11-20T09:36:53;9.83;;;6.90;;
13197;SDS011;6664;52.514;13.440;2022-11-20T09:39:46;11.50;;;7.13;;
13197;SDS011;6664;52.514;13.440;2022-11-20T09:46:07;10.20;;;6.93;;
13197;SDS011;6664;52.514;13.440;2022-11-20T09:49:32;9.03;;;6.90;;
13197;SDS011;6664;52.514;13.440;2022-11-20T09:55:54;7.03;;;5.77;;
13197;SDS011;6664;52.514;13.440;2022-11-20T09:58:44;8.80;;;6.00;;
13197;SDS011;6664;52.514;13.440;2022-11-20T10:01:34;8.67;;;5.70;;
13197;SDS011;6664;52.514;13.440;2022-11-20T10:04:23;7.97;;;6.03;;
13197;SDS011;6664;52.514;13.440;2022-11-20T10:07:17;10.53;;;5.90;;
13197;SDS011;6664;52.514;13.440;2022-11-20T10:11:04;8.60;;;6.10;;
13197;SDS011;6664;52.514;13.440;2022-11-20T10:13:53;11.03;;;7.53;;
13197;SDS011;6664;52.514;13.440;2022-11-20T10:17:01;9.63;;;6.20;;
13197;SDS011;6664;52.514;13.440;2022-11-20T10:23:15;11.70;;;6.10;;
13197;SDS011;6664;52.514;13.440;2022-11-20T10:29:11;9.00;;;5.80;;
13197;SDS011;6664;52.514;13.440;2022-11-20T10:32:02;8.50;;;6.23;;
13197;SDS011;6664;52.514;13.440;2022-11-20T10:34:58;10.47;;;6.67;;
13197;SDS011;6664;52.514;13.440;2022-11-20T10:38:10;8.97;;;6.27;;
13197;SDS011;6664;52.514;13.440;2022-11-20T10:41:08;8.00;;;5.50;;
13197;SDS011;6664;52.514;13.440;2022-11-20T10:47:24;9.40;;;6.10;;
13197;SDS011;6664;52.514;13.440;2022-11-20T10:50:11;8.23;;;6.33;;
13197;SDS011;6664;52.514;13.440;2022-11-20T10:53:31;8.50;;;6.27;;
13197;SDS011;6664;52.514;13.440;2022-11-20T10:56:56;10.20;;;5.97;;
13197;SDS011;6664;52.514;13.440;2022-11-20T11:00:04;10.07;;;6.30;;
13197;SDS011;6664;52.514;13.440;2022-11-20T11:02:52;8.97;;;5.70;;
13197;SDS011;6664;52.514;13.440;2022-11-20T11:05:44;11.37;;;6.20;;
13197;SDS011;6664;52.514;13.440;2022-11-20T11:08:56;7.63;;;5.97;;
13197;SDS011;6664;52.514;13.440;2022-11-20T11:11:45;8.80;;;6.67;;
13197;SDS011;6664;52.514;13.440;2022-11-20T11:14:31;8.87;;;5.93;;
13197;SDS011;6664;52.514;13.440;2022-11-20T11:17:31;9.23;;;6.07;;
13197;SDS011;6664;52.514;13.440;2022-11-20T11:20:22;7.43;;;5.37;;
13197;SDS011;6664;52.514;13.440;2022-11-20T11:23:10;13.87;;;6.00;;
13197;SDS011;6664;52.514;13.440;2022-11-20T11:26:22;9.30;;;6.00;;
13197;SDS011;6664;52.514;13.440;2022-11-20T11:29:15;7.23;;;6.07;;
13197;SDS011;6664;52.514;13.440;2022-11-20T11:32:03;8.50;;;5.47;;
13197;SDS011;6664;52.514;13.440;2022-11-20T11:35:00;8.33;;;6.13;;
13197;SDS011;6664;52.514;13.440;2022-11-20T11:37:47;9.33;;;6.60;;
13197;SDS011;6664;52.514;13.440;2022-11-20T11:40:36;14.00;;;6.90;;
13197;SDS011;6664;52.514;13.440;2022-11-20T11:43:24;10.90;;;7.00;;
13197;SDS011;6664;52.514;13.440;2022-11-20T11:49:19;8.70;;;5.97;;
13197;SDS011;6664;52.514;13.440;2022-11-20T11:52:16;7.07;;;5.70;;
13197;SDS011;6664;52.514;13.440;2022-11-20T11:55:04;7.93;;;5.23;;
13197;SDS011;6664;52.514;13.440;2022-11-20T12:03:55;9.50;;;6.20;;
13197;SDS011;6664;52.514;13.440;2022-11-20T12:07:00;11.67;;;6.30;;
13197;SDS011;6664;52.514;13.440;2022-11-20T12:16:17;9.53;;;5.70;;
13197;SDS011;6664;52.514;13.440;2022-11-20T12:19:12;14.40;;;6.07;;
13197;SDS011;6664;52.514;13.440;2022-11-20T12:22:05;13.10;;;6.53;;
13197;SDS011;6664;52.514;13.440;2022-11-20T12:25:28;8.10;;;5.20;;
13197;SDS011;6664;52.514;13.440;2022-11-20T12:31:25;7.80;;;4.97;;
13197;SDS011;6664;52.514;13.440;2022-11-20T12:37:33;8.13;;;5.60;;
13197;SDS011;6664;52.514;13.440;2022-11-20T12:44:04;9.60;;;6.10;;
13197;SDS011;6664;52.514;13.440;2022-11-20T12:59:45;6.00;;;4.30;;
13197;SDS011;6664;52.514;13.440;2022-11-20T13:06:18;6.20;;;4.50;;
13197;SDS011;6664;52.514;13.440;2022-11-20T13:09:04;6.10;;;4.60;;
13197;SDS011;6664;52.514;13.440;2022-11-20T13:18:25;4.17;;;3.77;;
13197;SDS011;6664;52.514;13.440;2022-11-20T13:21:21;3.47;;;3.00;;
13197;SDS011;6664;52.514;13.440;2022-11-20T13:24:22;7.17;;;4.20;;
13197;SDS011;6664;52.514;13.440;2022-11-20T13:30:00;3.73;;;3.33;;
13197;SDS011;6664;52.514;13.440;2022-11-20T13:33:03;6.13;;;3.93;;
13197;SDS011;6664;52.514;13.440;2022-11-20T13:36:33;4.73;;;3.40;;
13197;SDS011;6664;52.514;13.440;2022-11-20T13:39:08;7.67;;;5.07;;
13197;SDS011;6664;52.514;13.440;2022-11-20T13:41:57;4.37;;;3.93;;
13197;SDS011;6664;52.514;13.440;2022-11-20T13:45:23;5.70;;;3.40;;
13197;SDS011;6664;52.514;13.440;2022-11-20T13:48:21;3.90;;;3.30;;
13197;SDS011;6664;52.514;13.440;2022-11-20T14:00:29;3.90;;;3.50;;
13197;SDS011;6664;52.514;13.440;2022-11-20T14:03:19;5.50;;;4.10;;
13197;SDS011;6664;52.514;13.440;2022-11-20T14:06:31;4.07;;;3.63;;
13197;SDS011;6664;52.514;13.440;2022-11-20T14:09:27;5.00;;;3.67;;
13197;SDS011;6664;52.514;13.440;2022-11-20T14:12:20;5.63;;;3.80;;
13197;SDS011;6664;52.514;13.440;2022-11-20T14:15:23;3.47;;;2.80;;
13197;SDS011;6664;52.514;13.440;2022-11-20T14:18:19;3.97;;;3.30;;
13197;SDS011;6664;52.514;13.440;2022-11-20T14:21:09;4.63;;;3.20;;
13197;SDS011;6664;52.514;13.440;2022-11-20T14:24:04;5.30;;;3.10;;
13197;SDS011;6664;52.514;13.440;2022-11-20T14:26:51;3.67;;;3.00;;
13197;SDS011;6664;52.514;13.440;2022-11-20T14:29:39;3.60;;;3.30;;
13197;SDS011;6664;52.514;13.440;2022-11-20T14:32:27;3.97;;;3.10;;
13197;SDS011;6664;52.514;13.440;2022-11-20T14:38:39;3.73;;;3.30;;
13197;SDS011;6664;52.514;13.440;2022-11-20T14:41:27;3.77;;;3.40;;
13197;SDS011;6664;52.514;13.440;2022-11-20T14:44:15;6.93;;;4.80;;
13197;SDS011;6664;52.514;13.440;2022-11-20T14:47:01;4.77;;;3.70;;
13197;SDS011;6664;52.514;13.440;2022-11-20T14:49:52;4.23;;;3.60;;
13197;SDS011;6664;52.514;13.440;2022-11-20T14:52:38;5.73;;;4.50;;
13197;SDS011;6664;52.514;13.440;2022-11-20T14:55:35;5.67;;;4.13;;
13197;SDS011;6664;52.514;13.440;2022-11-20T14:58:26;6.00;;;4.77;;
13197;SDS011;6664;52.514;13.440;2022-11-20T15:01:16;7.13;;;4.00;;
13197;SDS011;6664;52.514;13.440;2022-11-20T15:04:11;7.63;;;4.60;;
13197;SDS011;6664;52.514;13.440;2022-11-20T15:06:58;7.40;;;4.20;;
13197;SDS011;6664;52.514;13.440;2022-11-20T15:09:45;6.90;;;4.77;;
13197;SDS011;6664;52.514;13.440;2022-11-20T15:12:32;5.10;;;4.03;;
13197;SDS011;6664;52.514;13.440;2022-11-20T15:18:24;6.70;;;4.40;;
13197;SDS011;6664;52.514;13.440;2022-11-20T15:21:19;6.60;;;4.30;;
13197;SDS011;6664;52.514;13.440;2022-11-20T15:24:08;6.20;;;4.37;;
13197;SDS011;6664;52.514;13.440;2022-11-20T15:26:56;6.10;;;4.37;;
13197;SDS011;6664;52.514;13.440;2022-11-20T15:29:42;5.87;;;4.03;;
13197;SDS011;6664;52.514;13.440;2022-11-20T15:32:28;4.23;;;3.80;;
13197;SDS011;6664;52.514;13.440;2022-11-20T15:35:14;4.80;;;3.57;;
13197;SDS011;6664;52.514;13.440;2022-11-20T15:38:03;4.67;;;4.07;;
13197;SDS011;6664;52.514;13.440;2022-11-20T15:40:48;10.33;;;4.30;;
13197;SDS011;6664;52.514;13.440;2022-11-20T15:43:34;6.83;;;4.53;;
13197;SDS011;6664;52.514;13.440;2022-11-20T15:46:23;5.30;;;3.50;;
13197;SDS011;6664;52.514;13.440;2022-11-20T15:49:16;7.00;;;4.83;;
13197;SDS011;6664;52.514;13.440;2022-11-20T15:52:03;5.50;;;3.70;;
13197;SDS011;6664;52.514;13.440;2022-11-20T15:54:49;5.13;;;3.67;;
13197;SDS011;6664;52.514;13.440;2022-11-20T15:57:35;7.30;;;4.40;;
13197;SDS011;6664;52.514;13.440;2022-11-20T16:00:20;6.10;;;4.60;;
13197;SDS011;6664;52.514;13.440;2022-11-20T16:03:11;8.17;;;4.43;;
13197;SDS011;6664;52.514;13.440;2022-11-20T16:05:57;4.30;;;3.90;;
13197;SDS011;6664;52.514;13.440;2022-11-20T16:08:42;5.77;;;4.03;;
13197;SDS011;6664;52.514;13.440;2022-11-20T16:11:30;5.60;;;4.47;;
13197;SDS011;6664;52.514;13.440;2022-11-20T16:14:20;8.10;;;4.50;;
13197;SDS011;6664;52.514;13.440;2022-11-20T16:17:24;4.47;;;3.63;;
13197;SDS011;6664;52.514;13.440;2022-11-20T16:20:29;6.30;;;4.67;;
13197;SDS011;6664;52.514;13.440;2022-11-20T16:23:15;5.37;;;4.80;;
13197;SDS011;6664;52.514;13.440;2022-11-20T16:26:10;6.97;;;5.20;;
13197;SDS011;6664;52.514;13.440;2022-11-20T16:29:01;6.10;;;3.83;;
13197;SDS011;6664;52.514;13.440;2022-11-20T16:31:50;6.70;;;4.57;;
13197;SDS011;6664;52.514;13.440;2022-11-20T16:34:36;4.27;;;3.57;;
13197;SDS011;6664;52.514;13.440;2022-11-20T16:37:22;6.47;;;4.10;;
13197;SDS011;6664;52.514;13.440;2022-11-20T16:40:08;7.57;;;3.90;;
13197;SDS011;6664;52.514;13.440;2022-11-20T16:42:55;5.53;;;4.53;;
13197;SDS011;6664;52.514;13.440;2022-11-20T16:45:51;6.20;;;4.37;;
13197;SDS011;6664;52.514;13.440;2022-11-20T16:48:39;5.40;;;4.30;;
13197;SDS011;6664;52.514;13.440;2022-11-20T16:51:25;6.93;;;4.07;;
13197;SDS011;6664;52.514;13.440;2022-11-20T16:54:12;5.57;;;4.50;;
13197;SDS011;6664;52.514;13.440;2022-11-20T16:57:05;5.03;;;4.20;;
13197;SDS011;6664;52.514;13.440;2022-11-20T16:59:51;7.17;;;5.27;;
13197;SDS011;6664;52.514;13.440;2022-11-20T17:02:36;8.20;;;5.10;;
13197;SDS011;6664;52.514;13.440;2022-11-20T17:05:24;7.20;;;5.63;;
13197;SDS011;6664;52.514;13.440;2022-11-20T17:08:10;4.77;;;4.33;;
13197;SDS011;6664;52.514;13.440;2022-11-20T17:10:56;6.67;;;4.50;;
13197;SDS011;6664;52.514;13.440;2022-11-20T17:13:49;7.10;;;4.87;;
13197;SDS011;6664;52.514;13.440;2022-11-20T17:16:35;6.87;;;5.07;;
13197;SDS011;6664;52.514;13.440;2022-11-20T17:19:21;6.20;;;4.70;;
13197;SDS011;6664;52.514;13.440;2022-11-20T17:22:07;6.93;;;5.03;;
13197;SDS011;6664;52.514;13.440;2022-11-20T17:24:52;5.87;;;4.13;;
13197;SDS011;6664;52.514;13.440;2022-11-20T17:27:40;5.40;;;4.27;;
13197;SDS011;6664;52.514;13.440;2022-11-20T17:30:25;6.20;;;4.83;;
13197;SDS011;6664;52.514;13.440;2022-11-20T17:33:11;6.37;;;5.13;;
13197;SDS011;6664;52.514;13.440;2022-11-20T17:35:59;4.60;;;4.20;;
13197;SDS011;6664;52.514;13.440;2022-11-20T17:38:44;7.50;;;5.03;;
13197;SDS011;6664;52.514;13.440;2022-11-20T17:41:33;7.90;;;5.17;;
13197;SDS011;6664;52.514;13.440;2022-11-20T17:44:18;8.90;;;5.77;;
13197;SDS011;6664;52.514;13.440;2022-11-20T17:47:04;7.80;;;5.53;;
13197;SDS011;6664;52.514;13.440;2022-11-20T17:49:50;7.73;;;5.80;;
13197;SDS011;6664;52.514;13.440;2022-11-20T17:52:35;7.30;;;5.00;;
13197;SDS011;6664;52.514;13.440;2022-11-20T17:55:21;6.50;;;5.57;;
13197;SDS011;6664;52.514;13.440;2022-11-20T17:58:06;6.20;;;5.60;;
13197;SDS011;6664;52.514;13.440;2022-11-20T18:00:51;6.83;;;5.10;;
13197;SDS011;6664;52.514;13.440;2022-11-20T18:03:37;7.03;;;5.43;;
13197;SDS011;6664;52.514;13.440;2022-11-20T18:06:25;29.43;;;5.80;;
13197;SDS011;6664;52.514;13.440;2022-11-20T18:09:15;6.90;;;5.00;;
13197;SDS011;6664;52.514;13.440;2022-11-20T18:12:00;6.40;;;5.13;;
13197;SDS011;6664;52.514;13.440;2022-11-20T18:14:47;9.73;;;5.40;;
13197;SDS011;6664;52.514;13.440;2022-11-20T18:17:32;11.67;;;6.17;;
13197;SDS011;6664;52.514;13.440;2022-11-20T18:20:19;7.90;;;5.20;;
13197;SDS011;6664;52.514;13.440;2022-11-20T18:23:15;7.00;;;4.70;;
13197;SDS011;6664;52.514;13.440;2022-11-20T18:26:03;6.83;;;5.03;;